Time;durP1;ratioP1;P1;durP2;ratioP2;P2;SDS_P1;SDS_P2;PMS_P1;PMS_P2;Temp;Humidity;BMP_temperature;BMP_pressure;BME280_temperature;BME280_humidity;BME280_pressure;Samples;Min_cycle;Max_cycle;Signal;HPM_P1;HPM_P2
2023/03/19 00:00:18;;;;;;;21.33;9.05;;;;;;;;;;5138087;27;20054;-69
2023/03/19 00:03:07;;;;;;;20.00;8.57;;;;;;;;;;5139623;27;20073;-67
2023/03/19 00:05:35;;;;;;;15.90;7.93;;;;;;;;;;5119372;27;20437;-68
2023/03/19 00:08:02;;;;;;;22.70;8.23;;;;;;;;;;5142372;27;20051;-67
2023/03/19 00:10:37;;;;;;;12.77;7.70;;;;;;;;;;5142950;27;20383;-68
2023/03/19 00:13:04;;;;;;;15.52;7.93;;;;;;;;;;5139185;27;20038;-67
2023/03/19 00:15:33;;;;;;;17.23;7.85;;;;;;;;;;5128232;27;20320;-69
2023/03/19 00:18:00;;;;;;;16.67;6.93;;;;;;;;;;5146263;27;20050;-69
2023/03/19 00:20:26;;;;;;;13.32;6.60;;;;;;;;;;5124599;27;20107;-66
2023/03/19 00:22:51;;;;;;;17.35;7.25;;;;;;;;;;5140259;27;20038;-67
2023/03/19 00:25:17;;;;;;;11.57;5.80;;;;;;;;;;5144170;27;20085;-68
2023/03/19 00:27:43;;;;;;;16.27;6.22;;;;;;;;;;5143037;27;20062;-67
2023/03/19 00:30:10;;;;;;;12.57;6.20;;;;;;;;;;5148077;27;20054;-67
2023/03/19 00:32:36;;;;;;;12.27;5.57;;;;;;;;;;5147688;27;20410;-67
2023/03/19 00:35:05;;;;;;;15.85;5.85;;;;;;;;;;5141885;27;20047;-68
2023/03/19 00:37:31;;;;;;;15.50;5.53;;;;;;;;;;5149838;27;20050;-69
2023/03/19 00:39:57;;;;;;;11.07;5.68;;;;;;;;;;5118080;27;20447;-67
2023/03/19 00:42:23;;;;;;;14.77;5.68;;;;;;;;;;5148372;27;20407;-68
2023/03/19 00:44:49;;;;;;;19.10;6.70;;;;;;;;;;5148158;27;20051;-68
2023/03/19 00:47:15;;;;;;;17.40;6.53;;;;;;;;;;5142495;27;20406;-68
2023/03/19 00:50:20;;;;;;;15.57;6.25;;;;;;;;;;5119508;27;20054;-68
2023/03/19 00:54:01;;;;;;;15.77;5.88;;;;;;;;;;5147333;27;20465;-68
2023/03/19 00:57:41;;;;;;;13.38;5.43;;;;;;;;;;5145164;27;20547;-68
2023/03/19 01:01:22;;;;;;;16.65;6.28;;;;;;;;;;5141599;27;20084;-68
2023/03/19 01:05:02;;;;;;;12.32;5.03;;;;;;;;;;5146656;27;20054;-68
2023/03/19 01:08:42;;;;;;;10.68;4.57;;;;;;;;;;5147507;27;20080;-68
2023/03/19 01:12:23;;;;;;;11.55;4.40;;;;;;;;;;5146526;27;20043;-69
2023/03/19 01:16:04;;;;;;;9.18;3.97;;;;;;;;;;5142478;27;20474;-69
2023/03/19 01:19:46;;;;;;;7.43;3.88;;;;;;;;;;5143314;27;20082;-66
2023/03/19 01:23:26;;;;;;;11.52;3.85;;;;;;;;;;5142071;27;20464;-70
2023/03/19 01:27:06;;;;;;;7.75;3.58;;;;;;;;;;5140519;27;20050;-69
2023/03/19 01:30:47;;;;;;;8.15;3.40;;;;;;;;;;5142497;27;20038;-70
2023/03/19 01:34:27;;;;;;;8.05;2.60;;;;;;;;;;5144358;27;20455;-69
2023/03/19 01:38:07;;;;;;;19.30;3.40;;;;;;;;;;5142613;27;20095;-68
2023/03/19 01:41:48;;;;;;;7.13;2.72;;;;;;;;;;5144279;27;20098;-68
2023/03/19 01:45:27;;;;;;;6.22;2.53;;;;;;;;;;5145084;27;20104;-69
2023/03/19 01:48:50;;;;;;;7.10;2.70;;;;;;;;;;5141067;27;20042;-70
2023/03/19 01:52:31;;;;;;;7.90;2.60;;;;;;;;;;5139113;27;20042;-69
2023/03/19 01:56:11;;;;;;;5.82;2.40;;;;;;;;;;5131557;27;20042;-70
2023/03/19 02:00:00;;;;;;;6.57;2.30;;;;;;;;;;5140506;27;20054;-67
2023/03/19 02:03:41;;;;;;;4.65;2.88;;;;;;;;;;5143467;27;20043;-68
2023/03/19 02:07:21;;;;;;;8.23;2.22;;;;;;;;;;5143327;27;20085;-68
2023/03/19 02:11:01;;;;;;;4.53;2.00;;;;;;;;;;5136578;27;20072;-67
2023/03/19 02:14:41;;;;;;;8.05;2.30;;;;;;;;;;5140914;27;20121;-64
2023/03/19 02:18:22;;;;;;;7.82;2.30;;;;;;;;;;5139099;27;20090;-67
2023/03/19 02:22:02;;;;;;;6.15;2.70;;;;;;;;;;5136670;27;20521;-66
2023/03/19 02:25:26;;;;;;;7.15;1.98;;;;;;;;;;5139904;27;20121;-68
2023/03/19 02:29:06;;;;;;;6.18;2.05;;;;;;;;;;5147308;27;22410;-65
2023/03/19 02:32:47;;;;;;;9.27;3.70;;;;;;;;;;5143669;27;20042;-66
2023/03/19 02:36:28;;;;;;;6.03;2.60;;;;;;;;;;5141461;27;20039;-67
2023/03/19 02:40:08;;;;;;;6.03;2.92;;;;;;;;;;5145354;27;20038;-67
2023/03/19 02:43:48;;;;;;;7.55;3.70;;;;;;;;;;5142272;27;20347;-66
2023/03/19 02:47:29;;;;;;;10.50;4.20;;;;;;;;;;5143539;27;20070;-65
2023/03/19 02:51:09;;;;;;;7.95;3.55;;;;;;;;;;5138295;27;20251;-66
2023/03/19 02:54:49;;;;;;;10.18;3.83;;;;;;;;;;5139191;27;20039;-66
2023/03/19 02:58:30;;;;;;;15.35;6.18;;;;;;;;;;5143242;27;20038;-68
2023/03/19 03:02:10;;;;;;;9.57;4.40;;;;;;;;;;5140102;27;20032;-65
2023/03/19 03:05:50;;;;;;;8.82;3.75;;;;;;;;;;5126682;27;20053;-66
2023/03/19 03:09:32;;;;;;;7.97;3.20;;;;;;;;;;5140095;27;20043;-66
2023/03/19 03:13:12;;;;;;;7.72;2.90;;;;;;;;;;5144679;27;20051;-69
2023/03/19 03:16:52;;;;;;;6.03;2.45;;;;;;;;;;5139283;27;20536;-67
2023/03/19 03:20:33;;;;;;;5.82;2.83;;;;;;;;;;5136214;27;20046;-68
2023/03/19 03:24:13;;;;;;;4.80;2.85;;;;;;;;;;5139406;27;20054;-68
2023/03/19 03:27:53;;;;;;;5.45;2.70;;;;;;;;;;5139023;27;20103;-66
2023/03/19 03:31:37;;;;;;;8.65;2.70;;;;;;;;;;5131503;27;20108;-65
2023/03/19 03:35:21;;;;;;;5.90;2.67;;;;;;;;;;5143481;27;20042;-68
2023/03/19 03:38:59;;;;;;;8.82;2.85;;;;;;;;;;5139988;27;20039;-66
2023/03/19 03:42:40;;;;;;;6.13;2.35;;;;;;;;;;5147453;27;20064;-68
2023/03/19 03:46:21;;;;;;;5.38;2.30;;;;;;;;;;5133565;27;20126;-67
2023/03/19 03:50:03;;;;;;;6.82;2.60;;;;;;;;;;5138634;27;20126;-66
2023/03/19 03:53:42;;;;;;;4.50;2.05;;;;;;;;;;5138223;27;20070;-65
2023/03/19 03:57:22;;;;;;;5.93;1.73;;;;;;;;;;5138589;27;20122;-66
2023/03/19 04:01:03;;;;;;;3.53;1.65;;;;;;;;;;5134419;27;20053;-66
2023/03/19 04:04:43;;;;;;;4.40;1.80;;;;;;;;;;5136572;27;20622;-66
2023/03/19 04:08:23;;;;;;;2.53;1.42;;;;;;;;;;5149454;27;20034;-67
2023/03/19 04:12:04;;;;;;;4.18;1.60;;;;;;;;;;5142026;27;20107;-67
2023/03/19 04:15:45;;;;;;;3.00;1.80;;;;;;;;;;5142349;27;20045;-71
2023/03/19 04:19:26;;;;;;;2.65;1.50;;;;;;;;;;5147571;27;20466;-67
2023/03/19 04:23:07;;;;;;;3.40;1.50;;;;;;;;;;5148645;27;20046;-69
2023/03/19 04:26:48;;;;;;;4.35;1.80;;;;;;;;;;5145393;27;20050;-66
2023/03/19 04:30:28;;;;;;;6.68;2.15;;;;;;;;;;5145509;27;20099;-66
2023/03/19 04:34:08;;;;;;;3.88;1.90;;;;;;;;;;5146908;27;20031;-65
2023/03/19 04:37:50;;;;;;;4.22;2.00;;;;;;;;;;5142707;27;20161;-65
2023/03/19 04:40:51;;;;;;;4.15;1.60;;;;;;;;;;5136903;27;20840;-66
2023/03/19 04:43:17;;;;;;;2.60;1.73;;;;;;;;;;5150214;27;20137;-66
2023/03/19 04:45:45;;;;;;;6.57;1.60;;;;;;;;;;5141625;27;20046;-66
2023/03/19 04:48:11;;;;;;;1.98;1.40;;;;;;;;;;5150340;27;20043;-64
2023/03/19 04:50:39;;;;;;;3.55;1.48;;;;;;;;;;5144912;27;20134;-65
2023/03/19 04:53:06;;;;;;;2.50;1.50;;;;;;;;;;5146633;27;20059;-65
2023/03/19 04:55:33;;;;;;;6.43;1.70;;;;;;;;;;5130545;27;20051;-65
2023/03/19 04:58:00;;;;;;;3.70;1.48;;;;;;;;;;5141349;27;20547;-65
2023/03/19 05:00:27;;;;;;;3.75;1.40;;;;;;;;;;5125717;27;20487;-66
2023/03/19 05:02:53;;;;;;;2.47;1.40;;;;;;;;;;5144490;27;20039;-65
2023/03/19 05:05:18;;;;;;;4.25;1.60;;;;;;;;;;5138642;27;20057;-64
2023/03/19 05:07:45;;;;;;;3.00;1.30;;;;;;;;;;5139758;27;20047;-67
2023/03/19 05:10:11;;;;;;;3.72;1.60;;;;;;;;;;5146354;27;20054;-66
2023/03/19 05:12:37;;;;;;;2.63;1.50;;;;;;;;;;5142867;27;20050;-64
2023/03/19 05:15:04;;;;;;;2.97;1.60;;;;;;;;;;5144298;27;20046;-66
2023/03/19 05:17:31;;;;;;;5.28;1.77;;;;;;;;;;5148265;27;20046;-64
2023/03/19 05:19:57;;;;;;;3.03;1.40;;;;;;;;;;5148408;27;20133;-66
2023/03/19 05:22:23;;;;;;;3.28;1.60;;;;;;;;;;5151470;27;20051;-67
2023/03/19 05:24:49;;;;;;;1.98;1.20;;;;;;;;;;5147282;27;20096;-65
2023/03/19 05:27:15;;;;;;;2.30;1.55;;;;;;;;;;5147005;27;20050;-66
2023/03/19 05:29:41;;;;;;;8.15;1.98;;;;;;;;;;5149043;27;20053;-64
2023/03/19 05:32:09;;;;;;;4.95;1.88;;;;;;;;;;5148932;27;20494;-66
2023/03/19 05:34:35;;;;;;;2.83;1.60;;;;;;;;;;5148977;27;20570;-64
2023/03/19 05:37:04;;;;;;;3.25;1.20;;;;;;;;;;5148389;27;20058;-66
2023/03/19 05:39:30;;;;;;;4.43;1.15;;;;;;;;;;5147776;27;20046;-66
2023/03/19 05:41:57;;;;;;;3.63;1.60;;;;;;;;;;5145271;27;20047;-64
2023/03/19 05:44:23;;;;;;;2.03;1.35;;;;;;;;;;5149145;27;20103;-64
2023/03/19 05:46:49;;;;;;;3.63;1.50;;;;;;;;;;5147205;27;20103;-69
2023/03/19 05:49:15;;;;;;;2.80;1.50;;;;;;;;;;5148973;27;20039;-65
2023/03/19 05:51:41;;;;;;;2.13;1.40;;;;;;;;;;5127094;27;20042;-66
2023/03/19 05:54:06;;;;;;;4.75;1.75;;;;;;;;;;5148053;27;20464;-65
2023/03/19 05:56:33;;;;;;;1.80;1.40;;;;;;;;;;5145527;27;20046;-64
2023/03/19 05:58:58;;;;;;;2.63;1.55;;;;;;;;;;5147365;27;20039;-65
2023/03/19 06:01:26;;;;;;;4.00;1.80;;;;;;;;;;5136928;27;20055;-65
2023/03/19 06:03:51;;;;;;;2.45;1.63;;;;;;;;;;5147587;27;20042;-66
2023/03/19 06:06:17;;;;;;;2.17;1.50;;;;;;;;;;5140497;27;20050;-65
2023/03/19 06:08:44;;;;;;;2.25;1.30;;;;;;;;;;5146437;27;20043;-65
2023/03/19 06:11:10;;;;;;;3.30;1.20;;;;;;;;;;5143102;27;20051;-64
2023/03/19 06:13:36;;;;;;;2.25;1.17;;;;;;;;;;5144003;27;20043;-65
2023/03/19 06:16:03;;;;;;;3.78;1.40;;;;;;;;;;5138232;27;20047;-63
2023/03/19 06:18:29;;;;;;;2.25;1.30;;;;;;;;;;5147466;27;20047;-67
2023/03/19 06:20:55;;;;;;;2.72;1.20;;;;;;;;;;5148393;27;20280;-65
2023/03/19 06:23:20;;;;;;;4.28;1.40;;;;;;;;;;5147337;27;20034;-65
2023/03/19 06:25:46;;;;;;;2.88;1.00;;;;;;;;;;5148597;27;20046;-65
2023/03/19 06:28:12;;;;;;;1.08;0.80;;;;;;;;;;5126347;27;20176;-66
2023/03/19 06:30:39;;;;;;;3.50;1.10;;;;;;;;;;5141994;27;20039;-65
2023/03/19 06:33:05;;;;;;;3.47;1.20;;;;;;;;;;5146899;27;20519;-65
2023/03/19 06:35:32;;;;;;;1.73;1.00;;;;;;;;;;5147134;27;20042;-64
2023/03/19 06:37:58;;;;;;;4.28;1.10;;;;;;;;;;5145110;27;20039;-65
2023/03/19 06:40:24;;;;;;;2.70;1.25;;;;;;;;;;5146525;27;20521;-66
2023/03/19 06:42:49;;;;;;;2.55;1.30;;;;;;;;;;5142765;27;20070;-65
2023/03/19 06:45:17;;;;;;;2.80;1.40;;;;;;;;;;5142593;27;20095;-65
2023/03/19 06:47:44;;;;;;;3.05;1.40;;;;;;;;;;5146061;27;20043;-65
2023/03/19 06:50:11;;;;;;;2.92;1.30;;;;;;;;;;5139327;27;20030;-65
2023/03/19 06:52:39;;;;;;;2.90;1.50;;;;;;;;;;5145679;27;20061;-65
2023/03/19 06:55:07;;;;;;;2.65;1.42;;;;;;;;;;5137351;27;20078;-64
2023/03/19 06:57:33;;;;;;;2.80;1.50;;;;;;;;;;5141704;27;20045;-65
2023/03/19 06:59:59;;;;;;;5.45;1.20;;;;;;;;;;5140608;27;20064;-66
2023/03/19 07:02:26;;;;;;;1.17;1.08;;;;;;;;;;5124127;27;20043;-65
2023/03/19 07:04:52;;;;;;;2.83;1.13;;;;;;;;;;5139526;27;20038;-67
2023/03/19 07:07:20;;;;;;;2.35;1.30;;;;;;;;;;5145252;27;20047;-64
2023/03/19 07:09:46;;;;;;;5.60;1.20;;;;;;;;;;5148650;27;20046;-66
2023/03/19 07:12:12;;;;;;;2.88;1.25;;;;;;;;;;5142867;27;20551;-65
2023/03/19 07:14:38;;;;;;;2.72;1.40;;;;;;;;;;5146596;27;20396;-67
2023/03/19 07:17:04;;;;;;;4.57;1.80;;;;;;;;;;5138111;27;20044;-65
2023/03/19 07:19:30;;;;;;;5.22;1.80;;;;;;;;;;5133067;27;20099;-66
2023/03/19 07:21:56;;;;;;;3.90;1.50;;;;;;;;;;5141325;27;20047;-65
2023/03/19 07:24:22;;;;;;;3.58;1.30;;;;;;;;;;5142805;27;20047;-66
2023/03/19 07:26:49;;;;;;;3.60;1.80;;;;;;;;;;5146755;27;20049;-66
2023/03/19 07:29:16;;;;;;;8.70;5.45;;;;;;;;;;5138562;27;20402;-64
2023/03/19 07:31:42;;;;;;;9.30;4.22;;;;;;;;;;5145310;27;20054;-66
2023/03/19 07:34:08;;;;;;;8.02;4.20;;;;;;;;;;5141740;27;20054;-66
2023/03/19 07:36:34;;;;;;;9.80;4.07;;;;;;;;;;5149421;27;20053;-67
2023/03/19 07:39:00;;;;;;;7.45;3.20;;;;;;;;;;5144339;27;20604;-66
2023/03/19 07:41:26;;;;;;;9.10;4.22;;;;;;;;;;5148232;27;20046;-64
2023/03/19 07:43:52;;;;;;;11.90;4.88;;;;;;;;;;5148555;27;20501;-65
2023/03/19 07:46:58;;;;;;;20.10;8.30;;;;;;;;;;5144327;27;20042;-66
2023/03/19 07:50:40;;;;;;;17.88;8.45;;;;;;;;;;5143752;27;20050;-66
2023/03/19 07:53:40;;;;;;;16.80;9.65;;;;;;;;;;5137967;27;20061;-66
2023/03/19 07:56:06;;;;;;;9.43;5.35;;;;;;;;;;5141059;27;20107;-64
2023/03/19 07:58:32;;;;;;;11.90;4.57;;;;;;;;;;5144234;27;20042;-66
2023/03/19 08:00:58;;;;;;;9.82;4.15;;;;;;;;;;5145257;27;20134;-67
2023/03/19 08:03:24;;;;;;;6.78;3.60;;;;;;;;;;5149679;27;20457;-67
2023/03/19 08:05:51;;;;;;;9.40;3.05;;;;;;;;;;5124913;27;20043;-66
2023/03/19 08:08:17;;;;;;;3.97;2.33;;;;;;;;;;5145131;27;20062;-66
2023/03/19 08:10:49;;;;;;;3.38;1.92;;;;;;;;;;5127936;27;20701;-67
2023/03/19 08:13:15;;;;;;;5.15;1.90;;;;;;;;;;5136957;27;20076;-69
2023/03/19 08:15:41;;;;;;;3.47;1.50;;;;;;;;;;5146367;27;20043;-66
2023/03/19 08:18:07;;;;;;;6.10;1.63;;;;;;;;;;5149368;27;20111;-67
2023/03/19 08:20:34;;;;;;;4.22;1.58;;;;;;;;;;5141662;27;20398;-67
2023/03/19 08:23:00;;;;;;;3.75;1.70;;;;;;;;;;5146016;27;20051;-66
2023/03/19 08:25:26;;;;;;;3.53;1.90;;;;;;;;;;5146301;27;21911;-69
2023/03/19 08:27:53;;;;;;;2.95;1.67;;;;;;;;;;5145094;27;20039;-65
2023/03/19 08:30:20;;;;;;;7.68;2.05;;;;;;;;;;5147376;27;20054;-68
2023/03/19 08:32:48;;;;;;;4.28;1.40;;;;;;;;;;5144378;27;20377;-67
2023/03/19 08:35:14;;;;;;;3.70;1.65;;;;;;;;;;5141066;27;20054;-68
2023/03/19 08:37:40;;;;;;;2.55;1.33;;;;;;;;;;5141397;27;20035;-65
2023/03/19 08:40:10;;;;;;;2.33;1.10;;;;;;;;;;5145005;27;20042;-66
2023/03/19 08:42:40;;;;;;;2.28;1.15;;;;;;;;;;5143683;27;20054;-66
2023/03/19 08:45:11;;;;;;;3.15;1.42;;;;;;;;;;5143158;27;20153;-64
2023/03/19 08:47:38;;;;;;;3.50;1.20;;;;;;;;;;5130918;27;20035;-66
2023/03/19 08:50:05;;;;;;;1.73;1.10;;;;;;;;;;5135061;27;20046;-66
2023/03/19 08:52:34;;;;;;;5.15;1.50;;;;;;;;;;5129449;27;20073;-67
2023/03/19 08:55:02;;;;;;;3.08;1.77;;;;;;;;;;5146916;27;20061;-68
2023/03/19 08:57:30;;;;;;;6.88;3.33;;;;;;;;;;5120498;27;20050;-66
2023/03/19 08:59:56;;;;;;;8.30;4.75;;;;;;;;;;5149151;27;20062;-67
2023/03/19 09:02:21;;;;;;;11.90;4.95;;;;;;;;;;5142563;27;20111;-67
2023/03/19 09:04:47;;;;;;;9.55;4.40;;;;;;;;;;5142582;27;20443;-67
2023/03/19 09:07:14;;;;;;;10.50;3.50;;;;;;;;;;5146608;27;20149;-67
2023/03/19 09:09:42;;;;;;;5.82;3.38;;;;;;;;;;5143316;27;20395;-71
2023/03/19 09:12:11;;;;;;;5.72;2.97;;;;;;;;;;5144640;27;20054;-65
2023/03/19 09:14:38;;;;;;;4.35;2.60;;;;;;;;;;5144755;27;20430;-67
2023/03/19 09:17:05;;;;;;;10.52;2.08;;;;;;;;;;5144121;27;20053;-68
2023/03/19 09:19:32;;;;;;;3.00;1.90;;;;;;;;;;5139609;27;20047;-67
2023/03/19 09:21:58;;;;;;;4.57;1.20;;;;;;;;;;5136336;27;20394;-67
2023/03/19 09:24:26;;;;;;;3.05;1.13;;;;;;;;;;5118081;27;20383;-67
2023/03/19 09:26:52;;;;;;;1.40;0.90;;;;;;;;;;5124938;27;20047;-66
2023/03/19 09:29:19;;;;;;;1.33;0.80;;;;;;;;;;5129536;27;20402;-65
2023/03/19 09:31:45;;;;;;;3.30;1.13;;;;;;;;;;5140193;27;20057;-65
2023/03/19 09:34:12;;;;;;;3.85;1.40;;;;;;;;;;5124738;27;20054;-67
2023/03/19 09:36:39;;;;;;;16.05;9.88;;;;;;;;;;5138971;27;20494;-64
2023/03/19 09:39:06;;;;;;;4.10;1.95;;;;;;;;;;5147712;27;20042;-66
2023/03/19 09:41:44;;;;;;;2.35;1.60;;;;;;;;;;5141285;27;20099;-67
2023/03/19 09:44:33;;;;;;;4.28;2.50;;;;;;;;;;5134304;27;20428;-67
2023/03/19 09:47:26;;;;;;;10.50;6.72;;;;;;;;;;5125723;27;20053;-64
2023/03/19 09:49:56;;;;;;;2.42;0.93;;;;;;;;;;5145907;27;20057;-65
2023/03/19 09:52:46;;;;;;;2.20;1.20;;;;;;;;;;5140189;27;20057;-67
2023/03/19 09:55:23;;;;;;;3.33;2.40;;;;;;;;;;5134798;27;20556;-67
2023/03/19 09:57:50;;;;;;;2.83;1.63;;;;;;;;;;5135650;27;20070;-67
2023/03/19 10:00:27;;;;;;;1.73;1.20;;;;;;;;;;5135820;27;20031;-66
2023/03/19 10:03:17;;;;;;;5.03;2.00;;;;;;;;;;5123209;27;20039;-70
2023/03/19 10:06:22;;;;;;;1.88;1.00;;;;;;;;;;5131094;27;20043;-67
2023/03/19 10:09:20;;;;;;;3.05;1.63;;;;;;;;;;5142917;27;20082;-65
2023/03/19 10:12:05;;;;;;;6.60;2.70;;;;;;;;;;5129679;27;20061;-65
2023/03/19 10:14:49;;;;;;;3.47;1.00;;;;;;;;;;5137726;27;20132;-65
2023/03/19 10:17:18;;;;;;;;;;;;;;;;;;5145163;27;20118;-68
2023/03/19 10:19:56;;;;;;;4.05;1.88;;;;;;;;;;5144005;27;19926;-66
2023/03/19 10:22:28;;;;;;;10.77;6.05;;;;;;;;;;5146282;27;20397;-67
2023/03/19 10:24:56;;;;;;;12.63;6.60;;;;;;;;;;5126459;27;20050;-65
2023/03/19 10:27:27;;;;;;;3.78;1.23;;;;;;;;;;5136463;27;21170;-65
2023/03/19 10:29:54;;;;;;;4.25;1.60;;;;;;;;;;5140876;27;20050;-68
2023/03/19 10:32:29;;;;;;;11.90;7.80;;;;;;;;;;5137602;27;20172;-67
2023/03/19 10:35:00;;;;;;;9.43;6.07;;;;;;;;;;5139251;27;21493;-66
2023/03/19 10:37:28;;;;;;;2.92;1.50;;;;;;;;;;5146418;27;20075;-66
2023/03/19 10:39:57;;;;;;;3.63;1.77;;;;;;;;;;5147231;27;20490;-67
2023/03/19 10:42:45;;;;;;;5.32;1.58;;;;;;;;;;5125713;27;20053;-69
2023/03/19 10:45:27;;;;;;;1.88;1.05;;;;;;;;;;5142516;27;20054;-68
2023/03/19 10:47:56;;;;;;;2.03;1.05;;;;;;;;;;5124097;27;20051;-72
2023/03/19 10:50:31;;;;;;;5.10;1.20;;;;;;;;;;5133796;27;20076;-67
2023/03/19 10:53:21;;;;;;;5.05;2.10;;;;;;;;;;5145227;27;20047;-68
2023/03/19 10:55:54;;;;;;;10.00;4.18;;;;;;;;;;5139457;27;20043;-68
2023/03/19 10:58:24;;;;;;;2.70;1.35;;;;;;;;;;5142009;27;20088;-68
2023/03/19 11:00:57;;;;;;;8.80;1.95;;;;;;;;;;5142744;27;20674;-67
2023/03/19 11:03:55;;;;;;;6.05;2.45;;;;;;;;;;5147483;27;20055;-67
2023/03/19 11:06:31;;;;;;;3.50;1.58;;;;;;;;;;5138847;27;20047;-67
2023/03/19 11:09:06;;;;;;;4.65;1.73;;;;;;;;;;5145703;27;20050;-66
2023/03/19 11:11:52;;;;;;;4.18;1.10;;;;;;;;;;5138134;27;20043;-69
2023/03/19 11:15:06;;;;;;;4.35;1.63;;;;;;;;;;5143081;27;20058;-68
2023/03/19 11:19:00;;;;;;;3.00;1.35;;;;;;;;;;5131851;27;20081;-68
2023/03/19 11:23:01;;;;;;;1.40;0.80;;;;;;;;;;5143382;27;20061;-66
2023/03/19 11:26:37;;;;;;;3.67;1.33;;;;;;;;;;5137170;27;20046;-66
2023/03/19 11:30:21;;;;;;;6.45;1.60;;;;;;;;;;5147359;27;20050;-68
2023/03/19 11:33:37;;;;;;;6.57;1.80;;;;;;;;;;5142521;27;20127;-67
2023/03/19 11:37:15;;;;;;;3.03;0.85;;;;;;;;;;5142903;27;20146;-68
2023/03/19 11:40:00;;;;;;;4.35;1.17;;;;;;;;;;5144658;27;20055;-68
2023/03/19 11:42:44;;;;;;;4.25;1.50;;;;;;;;;;5145618;27;20493;-65
2023/03/19 11:45:53;;;;;;;4.47;2.53;;;;;;;;;;5143269;27;20047;-67
2023/03/19 11:48:26;;;;;;;6.35;3.00;;;;;;;;;;5030861;28;20045;-66
2023/03/19 11:51:21;;;;;;;48.88;13.73;;;;;;;;;;5051648;28;20045;-67
2023/03/19 11:53:59;;;;;;;7.07;1.90;;;;;;;;;;5017371;28;20037;-65
2023/03/19 11:56:55;;;;;;;6.65;1.88;;;;;;;;;;5033653;28;20289;-67
2023/03/19 11:59:28;;;;;;;11.43;3.70;;;;;;;;;;5041195;28;20132;-67
2023/03/19 12:02:15;;;;;;;6.50;2.67;;;;;;;;;;5033211;28;20049;-67
2023/03/19 12:05:03;;;;;;;7.47;2.05;;;;;;;;;;5037594;28;20050;-66
2023/03/19 12:07:47;;;;;;;4.95;2.00;;;;;;;;;;5031907;28;20211;-66
2023/03/19 12:10:16;;;;;;;4.82;1.67;;;;;;;;;;5036205;28;20056;-69
2023/03/19 12:12:53;;;;;;;10.13;1.95;;;;;;;;;;5031540;28;20649;-69
2023/03/19 12:15:39;;;;;;;5.57;1.95;;;;;;;;;;5032230;28;20110;-68
2023/03/19 12:18:33;;;;;;;9.40;2.60;;;;;;;;;;5042219;28;20057;-68
2023/03/19 12:21:25;;;;;;;3.35;1.60;;;;;;;;;;5120427;27;20047;-68
2023/03/19 12:24:53;;;;;;;8.95;2.40;;;;;;;;;;5107967;27;20180;-66
2023/03/19 12:28:38;;;;;;;10.30;4.80;;;;;;;;;;5119428;27;20503;-67
2023/03/19 12:31:55;;;;;;;8.98;2.05;;;;;;;;;;5125438;27;20050;-66
2023/03/19 12:35:35;;;;;;;7.45;1.98;;;;;;;;;;5126305;27;20506;-68
2023/03/19 12:39:28;;;;;;;9.35;3.33;;;;;;;;;;5122544;27;20047;-67
2023/03/19 12:43:08;;;;;;;5.45;2.22;;;;;;;;;;5109699;27;20062;-67
2023/03/19 12:47:01;;;;;;;7.07;2.30;;;;;;;;;;5121354;27;20035;-68
2023/03/19 12:50:41;;;;;;;9.75;3.17;;;;;;;;;;5126093;27;20051;-68
2023/03/19 12:54:27;;;;;;;6.03;2.63;;;;;;;;;;5116350;27;20478;-68
2023/03/19 12:57:36;;;;;;;6.63;2.50;;;;;;;;;;5115436;27;20434;-69
2023/03/19 13:01:13;;;;;;;7.35;1.92;;;;;;;;;;5119339;27;20043;-70
2023/03/19 13:04:52;;;;;;;8.35;2.65;;;;;;;;;;5120310;27;20695;-66
2023/03/19 13:08:02;;;;;;;9.43;4.32;;;;;;;;;;5115564;27;20122;-68
2023/03/19 13:11:46;;;;;;;80.13;39.45;;;;;;;;;;5125187;27;20135;-69
2023/03/19 13:15:06;;;;;;;11.52;5.90;;;;;;;;;;5117107;27;20057;-67
2023/03/19 13:18:35;;;;;;;15.90;9.07;;;;;;;;;;5133588;27;20605;-69
2023/03/19 13:22:15;;;;;;;7.25;3.45;;;;;;;;;;5144696;27;20085;-70
2023/03/19 13:25:55;;;;;;;9.07;3.25;;;;;;;;;;5141486;27;20406;-68
2023/03/19 13:29:05;;;;;;;9.80;4.70;;;;;;;;;;5138333;27;20110;-69
2023/03/19 13:32:43;;;;;;;311.10;170.68;;;;;;;;;;5139000;27;20050;-68
2023/03/19 13:36:23;;;;;;;14.00;6.22;;;;;;;;;;5130893;27;20325;-69
2023/03/19 13:40:04;;;;;;;10.32;3.40;;;;;;;;;;5142641;27;20065;-68
2023/03/19 13:43:27;;;;;;;8.57;3.50;;;;;;;;;;5143877;27;20046;-68
2023/03/19 13:47:19;;;;;;;14.98;3.15;;;;;;;;;;5136134;27;20512;-65
2023/03/19 13:51:11;;;;;;;6.07;2.65;;;;;;;;;;5134458;27;20047;-67
2023/03/19 13:54:12;;;;;;;3.28;1.45;;;;;;;;;;5131554;27;20069;-69
2023/03/19 13:57:14;;;;;;;4.28;1.50;;;;;;;;;;5132731;27;20118;-68
2023/03/19 14:00:45;;;;;;;2.60;1.30;;;;;;;;;;5141804;27;20038;-70
2023/03/19 14:04:17;;;;;;;3.17;1.60;;;;;;;;;;5138325;27;20635;-68
2023/03/19 14:07:57;;;;;;;5.32;1.55;;;;;;;;;;5138252;27;20057;-67
2023/03/19 14:11:41;;;;;;;4.88;1.73;;;;;;;;;;5138870;27;20047;-70
2023/03/19 14:15:34;;;;;;;7.20;1.50;;;;;;;;;;5141626;27;20075;-67
2023/03/19 14:19:15;;;;;;;2.22;1.10;;;;;;;;;;5128934;27;20486;-69
2023/03/19 14:22:15;;;;;;;6.22;1.52;;;;;;;;;;5147457;27;20054;-70
2023/03/19 14:25:50;;;;;;;8.82;1.83;;;;;;;;;;5138407;27;20483;-70
2023/03/19 14:29:31;;;;;;;2.67;1.10;;;;;;;;;;5138859;27;20058;-68
2023/03/19 14:33:11;;;;;;;5.18;1.48;;;;;;;;;;5146014;27;20115;-67
2023/03/19 14:36:51;;;;;;;9.65;1.17;;;;;;;;;;5142953;27;20072;-67
2023/03/19 14:40:32;;;;;;;2.03;1.20;;;;;;;;;;5137997;27;20121;-69
2023/03/19 14:44:04;;;;;;;7.72;1.73;;;;;;;;;;5140846;27;20847;-69
2023/03/19 14:47:23;;;;;;;4.35;1.25;;;;;;;;;;5138034;27;20061;-67
2023/03/19 14:50:58;;;;;;;4.65;1.48;;;;;;;;;;5136440;27;20042;-67
2023/03/19 14:54:45;;;;;;;3.80;1.50;;;;;;;;;;5139473;27;20521;-67
2023/03/19 14:58:25;;;;;;;5.75;1.55;;;;;;;;;;5131866;27;20046;-68
2023/03/19 15:02:05;;;;;;;5.90;1.70;;;;;;;;;;5144445;27;20047;-69
2023/03/19 15:05:26;;;;;;;4.13;1.42;;;;;;;;;;5146503;27;20050;-67
2023/03/19 15:09:06;;;;;;;4.18;1.30;;;;;;;;;;5133711;27;20150;-68
2023/03/19 15:12:30;;;;;;;3.75;1.52;;;;;;;;;;5139242;27;20557;-69
2023/03/19 15:16:05;;;;;;;5.70;1.80;;;;;;;;;;5139430;27;20056;-67
2023/03/19 15:19:45;;;;;;;4.68;1.40;;;;;;;;;;5137754;27;20099;-68
2023/03/19 15:23:39;;;;;;;6.13;1.50;;;;;;;;;;5141610;27;20063;-70
2023/03/19 15:27:19;;;;;;;4.18;1.30;;;;;;;;;;5145587;27;20087;-69
2023/03/19 15:30:39;;;;;;;6.40;2.17;;;;;;;;;;5140798;27;20042;-70
2023/03/19 15:34:20;;;;;;;4.80;1.55;;;;;;;;;;5142662;27;20115;-67
2023/03/19 15:38:01;;;;;;;3.58;1.52;;;;;;;;;;5138275;27;20230;-66
2023/03/19 15:41:41;;;;;;;5.22;1.40;;;;;;;;;;5136817;27;20066;-68
2023/03/19 15:45:24;;;;;;;5.43;1.75;;;;;;;;;;5135114;27;20270;-68
2023/03/19 15:49:04;;;;;;;6.70;2.40;;;;;;;;;;5136576;27;20689;-68
2023/03/19 15:52:45;;;;;;;7.50;1.80;;;;;;;;;;5143064;27;20054;-68
2023/03/19 15:56:25;;;;;;;5.18;1.70;;;;;;;;;;5138987;27;20167;-68
2023/03/19 16:00:05;;;;;;;5.18;1.85;;;;;;;;;;5148274;27;20049;-69
2023/03/19 16:03:49;;;;;;;3.28;1.20;;;;;;;;;;5140995;27;20050;-69
2023/03/19 16:07:29;;;;;;;5.88;1.80;;;;;;;;;;5144776;27;20046;-68
2023/03/19 16:11:13;;;;;;;10.13;1.80;;;;;;;;;;5145230;27;20455;-68
2023/03/19 16:14:38;;;;;;;3.55;1.52;;;;;;;;;;5141172;27;20043;-69
2023/03/19 16:18:20;;;;;;;5.68;1.63;;;;;;;;;;5145553;27;20102;-70
2023/03/19 16:21:23;;;;;;;3.67;1.30;;;;;;;;;;5146687;27;20435;-70
2023/03/19 16:25:06;;;;;;;6.47;1.55;;;;;;;;;;5136580;27;20055;-67
2023/03/19 16:28:44;;;;;;;6.40;1.60;;;;;;;;;;5149264;27;20050;-66
2023/03/19 16:32:14;;;;;;;5.32;1.75;;;;;;;;;;5147202;27;20128;-67
2023/03/19 16:35:52;;;;;;;5.28;1.88;;;;;;;;;;5140454;27;20062;-70
2023/03/19 16:39:34;;;;;;;7.38;2.10;;;;;;;;;;5142603;27;20039;-67
2023/03/19 16:43:15;;;;;;;3.65;1.63;;;;;;;;;;5146690;27;20038;-68
2023/03/19 16:46:54;;;;;;;3.13;1.20;;;;;;;;;;5146877;27;20166;-69
2023/03/19 16:50:35;;;;;;;3.13;1.35;;;;;;;;;;5139716;27;20162;-68
2023/03/19 16:54:16;;;;;;;5.13;1.63;;;;;;;;;;5138106;27;20039;-68
2023/03/19 16:57:55;;;;;;;12.13;2.03;;;;;;;;;;5147568;27;20039;-78
2023/03/19 17:01:38;;;;;;;7.57;1.88;;;;;;;;;;5139183;27;20135;-66
2023/03/19 17:05:19;;;;;;;6.05;1.50;;;;;;;;;;5145010;27;20666;-65
2023/03/19 17:09:00;;;;;;;8.10;1.77;;;;;;;;;;5146462;27;20399;-65
2023/03/19 17:12:40;;;;;;;4.88;1.77;;;;;;;;;;5139205;27;20100;-64
2023/03/19 17:16:20;;;;;;;4.50;1.75;;;;;;;;;;5139432;27;20435;-65
2023/03/19 17:20:00;;;;;;;10.07;2.83;;;;;;;;;;5136682;27;20062;-63
2023/03/19 17:23:41;;;;;;;5.18;1.90;;;;;;;;;;5133091;27;20067;-64
2023/03/19 17:27:21;;;;;;;8.55;1.90;;;;;;;;;;5139964;27;20501;-68
2023/03/19 17:31:01;;;;;;;14.90;4.55;;;;;;;;;;5141473;27;20125;-65
2023/03/19 17:34:42;;;;;;;8.77;2.95;;;;;;;;;;5141789;27;20531;-65
2023/03/19 17:38:24;;;;;;;8.10;2.08;;;;;;;;;;5140269;27;20066;-64
2023/03/19 17:42:04;;;;;;;5.10;1.80;;;;;;;;;;5138076;27;20074;-63
2023/03/19 17:45:47;;;;;;;3.78;1.52;;;;;;;;;;5137959;27;20042;-65
2023/03/19 17:49:27;;;;;;;4.63;1.65;;;;;;;;;;5142053;27;20134;-64
2023/03/19 17:53:06;;;;;;;5.18;1.95;;;;;;;;;;5133089;27;20683;-66
2023/03/19 17:56:47;;;;;;;4.85;1.52;;;;;;;;;;5139651;27;20140;-65
2023/03/19 18:00:31;;;;;;;4.22;1.60;;;;;;;;;;5135379;27;20082;-67
2023/03/19 18:03:35;;;;;;;5.32;1.73;;;;;;;;;;5136597;27;20053;-67
2023/03/19 18:06:41;;;;;;;5.47;1.75;;;;;;;;;;5139242;27;20492;-68